White Bluff, TN (37187)

8:31 PM CDT en Septiembre 29, 2016 (GMT -0500)
The Chapel in the Woods Weather | | Change Station

Alt 827 ft 36.11 °N, 87.21 °W | Updated 7 seconds ago

Partly Cloudy
Parcialmente nublado
52.2 ° F
Sensación térmica 52.2 ° F
N
0.0
Viento Variable Viento desde ESE
Gusts 0.0 mph

Hoy
Alta -- | Baja -- ° F
--% Posibilidad de precipitaciones
Ayer
Alta -- | Baja -- ° F
Precip. -- pul
Presión 30.12 pul
Visibilidad 10.0 Millas
Nubes Baja 10000 ft
Punto de rocío 50 ° F
Humedad 94%
Precipitaciones 0.00 pul
Espesor de la nieve No disponible.
6:42 AM 6:34 PM
Creciente menguante, 1% visible
METAR KBNA 300053Z 29003KT 10SM FEW100 13/11 A3012 RMK AO2 SLP199 T01330106
Presión 30.12 pul
Visibilidad 10.0 Millas
Nubes Baja 10000 ft
Punto de rocío 50 ° F
Humedad 94%
Precipitaciones 0.00 pul
Espesor de la nieve No disponible.
6:42 AM 6:34 PM
Creciente menguante, 1% visible
METAR KBNA 300053Z 29003KT 10SM FEW100 13/11 A3012 RMK AO2 SLP199 T01330106

10-Day Weather Forecast

Almanac

Astronomía

Sep. 29, 2016 Salida Puesta
Hora real
Crepúsculo civil
Crepúsculo náutico
Crepúsculo astronómico
Luna
Horas de luz
Horas de luz
Tomorrow will be .
, % of the Moon is Illuminated

Extremos de hoy

Máximos del estado Bajos del estado

Community

WunderPhotos

Upload Photos

1,942,626 ¡fotos cargadas!

WunderBlog® & News

Nearby

Calidad del aire

  Calidad del aire Índice AQ Contaminante
Not available.

Grosos de nieve

Estación Profundido Altura

Actividad de terremotos

Ciudad Distance Mag. Tiempo y dato
Magnitud mínima muestra es 2,5.

Temperaturas de aguas costeras

Lugar Temperatura

Stations

Estaciones meteorológicas cercanas

Ubicación de la estación Temp. Vientos helados Punto de rocío Humedad Viento Precip. Alt Actualizado Tipo
                   

Watches & Warnings

There are currently no watches in effect.